Date,TemperatureHighF,TemperatureAvgF,TemperatureLowF,DewpointHighF,DewpointAvgF,DewpointLowF,HumidityHigh,HumidityAvg,HumidityLow,PressureMaxIn,PressureMinIn,WindSpeedMaxMPH,WindSpeedAvgMPH,GustSpeedMaxMPH,PrecipitationSumIn
2014-2-28,-200.0,0.0,200.0,-99.9,-99.9,-99.9,0,0,100,29.44,29.33,28,5,0,0.06
2014-3-1,-200.0,0.0,200.0,-99.9,-99.9,-99.9,0,0,100,29.80,29.43,23,4,0,0.04
2014-3-2,-200.0,0.0,200.0,-99.9,-99.9,-99.9,0,0,100,30.12,29.79,10,2,0,0.02
2014-3-3,-200.0,0.0,200.0,-99.9,-99.9,-99.9,0,0,100,30.10,30.00,16,4,0,0.03
2014-3-4,-200.0,0.0,200.0,-99.9,-99.9,-99.9,0,0,100,30.09,30.01,15,3,0,0.04
2014-3-5,-200.0,0.0,200.0,-99.9,-99.9,-99.9,0,0,100,30.08,29.95,14,2,0,0.04
2014-3-6,-200.0,0.0,200.0,-99.9,-99.9,-99.9,0,0,100,30.20,30.03,11,3,0,0.04
2014-3-7,-200.0,0.0,200.0,-99.9,-99.9,-99.9,0,0,100,30.20,30.08,12,4,0,0.04
2014-3-8,-200.0,0.0,200.0,-99.9,-99.9,-99.9,0,0,100,30.19,30.09,12,4,0,0.04
2014-3-9,-200.0,0.0,200.0,-99.9,-99.9,-99.9,0,0,100,30.17,30.07,16,5,0,0.03
2014-3-10,-200.0,0.0,200.0,-99.9,-99.9,-99.9,0,0,100,30.26,30.09,12,2,0,0.04
2014-3-11,-200.0,0.0,200.0,-99.9,-99.9,-99.9,0,0,100,30.23,30.02,7,2,0,0.04
2014-3-12,-200.0,0.0,200.0,-99.9,-99.9,-99.9,0,0,100,30.13,30.02,15,6,0,0.03
2014-3-13,-200.0,0.0,200.0,-99.9,-99.9,-99.9,0,0,100,30.06,29.96,17,5,0,0.02
2014-3-14,-200.0,0.0,200.0,-99.9,-99.9,-99.9,0,0,100,30.23,30.04,11,3,0,0.02
2014-3-15,-200.0,0.0,200.0,-99.9,-99.9,-99.9,0,0,100,30.31,30.21,15,4,0,0.02
2014-3-16,-200.0,0.0,200.0,-99.9,-99.9,-99.9,0,0,100,30.31,30.19,12,4,0,0.02
2014-3-17,-200.0,0.0,200.0,-99.9,-99.9,-99.9,0,0,100,30.22,29.98,15,2,0,0.02
2014-3-18,-200.0,0.0,200.0,-99.9,-99.9,-99.9,0,0,100,29.99,29.89,15,5,0,0.01
2014-3-19,-200.0,0.0,200.0,-99.9,-99.9,-99.9,0,0,100,30.08,29.94,14,6,0,0.01
2014-3-20,-200.0,0.0,200.0,-99.9,-99.9,-99.9,0,0,100,30.05,29.93,18,6,0,0.02
2014-3-21,-200.0,0.0,200.0,-99.9,-99.9,-99.9,0,0,100,30.00,29.90,11,4,0,0.01
2014-3-22,-200.0,0.0,200.0,-99.9,-99.9,-99.9,0,0,100,30.10,29.95,11,4,0,0.01
2014-3-23,-200.0,0.0,200.0,-99.9,-99.9,-99.9,0,0,100,30.19,30.08,13,4,0,0.01
2014-3-24,-200.0,0.0,200.0,-99.9,-99.9,-99.9,0,0,100,30.16,30.02,11,4,0,0.01
2014-3-25,-200.0,0.0,200.0,-99.9,-99.9,-99.9,0,0,100,30.03,29.82,13,4,0,0.01
2014-3-26,-200.0,0.0,200.0,-99.9,-99.9,-99.9,0,0,100,29.92,29.74,10,2,0,0.02
2014-3-27,-200.0,0.0,200.0,-99.9,-99.9,-99.9,0,0,100,30.09,29.92,9,2,0,0.01
2014-3-28,-200.0,0.0,200.0,-99.9,-99.9,-99.9,0,0,100,30.14,30.05,20,5,0,0.02
2014-3-29,-200.0,0.0,200.0,-99.9,-99.9,-99.9,0,0,100,30.07,29.99,17,2,0,0.01
2014-3-30,-200.0,0.0,200.0,-99.9,-99.9,-99.9,0,0,100,30.12,30.03,12,4,0,0.02
2014-3-31,-200.0,0.0,200.0,-99.9,-99.9,-99.9,0,0,100,30.02,29.78,12,4,0,0.01
2014-4-1,-200.0,0.0,200.0,-99.9,-99.9,-99.9,0,0,100,29.86,29.77,14,4,0,0.01
2014-4-2,-200.0,0.0,200.0,-99.9,-99.9,-99.9,0,0,100,30.08,29.84,11,4,0,0.02
2014-4-3,-200.0,0.0,200.0,-99.9,-99.9,-99.9,0,0,100,30.09,30.00,12,6,0,0.02
2014-4-4,-200.0,0.0,200.0,-99.9,-99.9,-99.9,0,0,100,30.06,29.95,17,3,0,0.01
2014-4-5,-200.0,0.0,200.0,-99.9,-99.9,-99.9,0,0,100,30.21,30.05,17,5,0,0.01
2014-4-6,-200.0,0.0,200.0,-99.9,-99.9,-99.9,0,0,100,30.23,30.10,12,3,0,0.01
2014-4-7,-200.0,0.0,200.0,-99.9,-99.9,-99.9,0,0,100,30.15,30.05,14,4,0,0.01
2014-4-8,-200.0,0.0,200.0,-99.9,-99.9,-99.9,0,0,100,30.10,30.01,11,3,0,0.01
2014-4-9,-200.0,0.0,200.0,-99.9,-99.9,-99.9,0,0,100,30.08,29.98,9,1,0,0.01
2014-4-10,-200.0,0.0,200.0,-99.9,-99.9,-99.9,0,0,100,30.03,29.89,6,2,0,0.01
2014-4-11,-200.0,0.0,200.0,-99.9,-99.9,-99.9,0,0,100,29.93,29.85,11,2,0,0.01
2014-4-12,-200.0,0.0,200.0,-99.9,-99.9,-99.9,0,0,100,29.91,29.86,12,2,0,0.01
2014-4-13,-200.0,0.0,200.0,-99.9,-99.9,-99.9,0,0,100,30.05,29.90,9,2,0,0.01
2014-4-14,-200.0,0.0,200.0,-99.9,-99.9,-99.9,0,0,100,30.12,29.98,12,3,0,0.01
2014-4-15,-200.0,0.0,200.0,-99.9,-99.9,-99.9,0,0,100,30.04,29.89,11,4,0,0.00
2014-4-16,-200.0,0.0,200.0,-99.9,-99.9,-99.9,0,0,100,29.93,29.82,11,2,0,0.01
2014-4-17,-200.0,0.0,200.0,-99.9,-99.9,-99.9,0,0,100,29.89,29.78,22,3,0,0.00
2014-4-18,-200.0,0.0,200.0,-99.9,-99.9,-99.9,0,0,100,29.91,29.86,14,2,0,0.00
2014-4-19,-200.0,0.0,200.0,-99.9,-99.9,-99.9,0,0,100,30.12,29.90,18,4,0,0.01
2014-4-20,-200.0,0.0,200.0,-99.9,-99.9,-99.9,0,0,100,30.14,30.05,12,3,0,0.00
2014-4-21,-200.0,0.0,200.0,-99.9,-99.9,-99.9,0,0,100,30.08,29.96,12,3,0,0.00
2014-4-22,-200.0,0.0,200.0,-99.9,-99.9,-99.9,0,0,100,30.14,29.97,17,4,0,0.01
2014-4-23,-200.0,0.0,200.0,-99.9,-99.9,-99.9,0,0,100,30.15,30.09,13,4,0,0.00
2014-4-24,-200.0,0.0,200.0,-99.9,-99.9,-99.9,0,0,100,30.09,29.92,7,2,0,0.01
2014-4-25,-200.0,0.0,200.0,-99.9,-99.9,-99.9,0,0,100,29.95,29.79,9,2,0,0.00
2014-4-26,-200.0,0.0,200.0,-99.9,-99.9,-99.9,0,0,100,30.05,29.86,14,3,0,0.00
2014-4-27,-200.0,0.0,200.0,-99.9,-99.9,-99.9,0,0,100,30.13,29.97,14,4,0,0.01
2014-4-28,-200.0,0.0,200.0,-99.9,-99.9,-99.9,0,0,100,30.23,30.12,14,5,0,0.00
2014-4-29,-200.0,0.0,200.0,-99.9,-99.9,-99.9,0,0,100,30.19,30.03,14,4,0,0.00
2014-4-30,-200.0,0.0,200.0,-99.9,-99.9,-99.9,0,0,100,30.05,29.98,12,4,0,0.00
2014-5-1,-200.0,0.0,200.0,-99.9,-99.9,-99.9,0,0,100,30.10,29.99,14,5,0,0.00
2014-5-2,-200.0,0.0,200.0,-99.9,-99.9,-99.9,0,0,100,30.09,30.01,16,3,0,0.00
2014-5-3,-200.0,0.0,200.0,-99.9,-99.9,-99.9,0,0,100,30.03,29.98,19,5,0,0.00
2014-5-4,-200.0,0.0,200.0,-99.9,-99.9,-99.9,0,0,100,30.05,29.99,12,4,0,0.00
2014-5-5,-200.0,0.0,200.0,-99.9,-99.9,-99.9,0,0,100,30.03,29.96,19,6,0,0.00
2014-5-6,-200.0,0.0,200.0,-99.9,-99.9,-99.9,0,0,100,29.98,29.89,21,3,0,0.00
2014-5-7,-200.0,0.0,200.0,-99.9,-99.9,-99.9,0,0,100,30.00,29.88,19,3,0,0.00
2014-5-8,-200.0,0.0,200.0,-99.9,-99.9,-99.9,0,0,100,30.06,29.97,6,1,0,0.11
2014-5-9,-200.0,0.0,200.0,-99.9,-99.9,-99.9,0,0,100,30.16,30.06,25,4,0,0.01
2014-5-10,-200.0,0.0,200.0,-99.9,-99.9,-99.9,0,0,100,30.16,30.06,19,4,0,0.00
2014-5-11,-200.0,0.0,200.0,-99.9,-99.9,-99.9,0,0,100,30.14,30.03,12,3,0,0.00
2014-5-12,-200.0,0.0,200.0,-99.9,-99.9,-99.9,0,0,100,30.12,30.02,13,4,0,0.00
2014-5-13,-200.0,0.0,200.0,-99.9,-99.9,-99.9,0,0,100,30.11,30.04,16,6,0,0.00
2014-5-14,-200.0,0.0,200.0,-99.9,-99.9,-99.9,0,0,100,30.12,30.05,15,6,0,0.00
2014-5-15,-200.0,0.0,200.0,-99.9,-99.9,-99.9,0,0,100,30.11,30.03,15,4,0,0.00
2014-5-16,-200.0,0.0,200.0,-99.9,-99.9,-99.9,0,0,100,30.07,29.97,14,3,0,0.00
2014-5-17,-200.0,0.0,200.0,-99.9,-99.9,-99.9,0,0,100,29.98,29.93,17,3,0,0.00
2014-5-18,-200.0,0.0,200.0,-99.9,-99.9,-99.9,0,0,100,29.98,29.94,16,4,0,0.00
2014-5-19,-200.0,0.0,200.0,-99.9,-99.9,-99.9,0,0,100,29.96,29.90,12,3,0,0.00
2014-5-20,-200.0,0.0,200.0,-99.9,-99.9,-99.9,0,0,100,29.98,29.92,12,3,0,0.00
2014-5-21,-200.0,0.0,200.0,-99.9,-99.9,-99.9,0,0,100,29.95,29.87,12,2,0,0.00
2014-5-22,-200.0,0.0,200.0,-99.9,-99.9,-99.9,0,0,100,29.99,29.88,7,2,0,0.00
2014-5-23,-200.0,0.0,200.0,-99.9,-99.9,-99.9,0,0,100,30.01,29.93,11,1,0,0.00
2014-5-24,-200.0,0.0,200.0,-99.9,-99.9,-99.9,0,0,100,29.98,29.91,17,2,0,0.00
2014-5-25,-200.0,0.0,200.0,-99.9,-99.9,-99.9,0,0,100,29.98,29.93,12,2,0,0.00
2014-5-26,-200.0,0.0,200.0,-99.9,-99.9,-99.9,0,0,100,30.03,29.97,10,3,0,0.00
2014-5-27,-200.0,0.0,200.0,-99.9,-99.9,-99.9,0,0,100,30.07,29.99,16,3,0,0.00
2014-5-28,-200.0,0.0,200.0,-99.9,-99.9,-99.9,0,0,100,30.09,29.97,18,3,0,0.00
2014-5-29,-200.0,0.0,200.0,-99.9,-99.9,-99.9,0,0,100,29.97,29.86,11,2,0,0.00
2014-5-30,-200.0,0.0,200.0,-99.9,-99.9,-99.9,0,0,100,29.93,29.86,12,3,0,0.00
2014-5-31,-200.0,0.0,200.0,-99.9,-99.9,-99.9,0,0,100,29.98,29.87,6,2,0,0.00
2014-6-1,-200.0,0.0,200.0,-99.9,-99.9,-99.9,0,0,100,29.91,29.78,6,1,0,0.00
2014-6-2,-200.0,0.0,200.0,-99.9,-99.9,-99.9,0,0,100,29.88,29.77,9,1,0,0.00
2014-6-3,-200.0,0.0,200.0,-99.9,-99.9,-99.9,0,0,100,29.95,29.84,8,1,0,0.00
2014-6-4,-200.0,0.0,200.0,-99.9,-99.9,-99.9,0,0,100,29.91,29.80,5,2,0,0.00
2014-6-5,-200.0,0.0,200.0,-99.9,-99.9,-99.9,0,0,100,29.86,29.79,13,3,0,0.00
2014-6-6,-200.0,0.0,200.0,-99.9,-99.9,-99.9,0,0,100,29.86,29.79,6,1,0,0.00
2014-6-7,-200.0,0.0,200.0,-99.9,-99.9,-99.9,0,0,100,29.84,29.76,4,1,0,0.00
2014-6-8,-200.0,0.0,200.0,-99.9,-99.9,-99.9,0,0,100,29.83,29.71,7,2,0,0.00
2014-6-9,-200.0,0.0,200.0,-99.9,-99.9,-99.9,0,0,100,29.77,29.65,6,1,0,0.00
2014-6-10,-200.0,0.0,200.0,-99.9,-99.9,-99.9,0,0,100,29.81,29.70,6,1,0,0.00
2014-6-11,-200.0,0.0,200.0,-99.9,-99.9,-99.9,0,0,100,29.91,29.80,9,2,0,0.00
2014-6-12,-200.0,0.0,200.0,-99.9,-99.9,-99.9,0,0,100,29.96,29.86,18,4,0,0.00
2014-6-13,-200.0,0.0,200.0,-99.9,-99.9,-99.9,0,0,100,29.98,29.92,14,3,0,0.00
2014-6-14,-200.0,0.0,200.0,-99.9,-99.9,-99.9,0,0,100,29.94,29.80,11,2,0,0.00
2014-6-15,-200.0,0.0,200.0,-99.9,-99.9,-99.9,0,0,100,29.82,29.77,9,2,0,0.00
2014-6-16,-200.0,0.0,200.0,-99.9,-99.9,-99.9,0,0,100,29.89,29.80,21,4,0,0.00
2014-6-17,-200.0,0.0,200.0,-99.9,-99.9,-99.9,0,0,100,29.96,29.88,10,2,0,0.00
2014-6-18,-200.0,0.0,200.0,-99.9,-99.9,-99.9,0,0,100,29.94,29.89,13,4,0,0.00
2014-6-19,-200.0,0.0,200.0,-99.9,-99.9,-99.9,0,0,100,29.98,29.89,14,3,0,0.00
2014-6-20,-200.0,0.0,200.0,-99.9,-99.9,-99.9,0,0,100,29.98,29.90,15,3,0,0.00
2014-6-21,-200.0,0.0,200.0,-99.9,-99.9,-99.9,0,0,100,29.93,29.85,18,3,0,0.00
2014-6-22,-200.0,0.0,200.0,-99.9,-99.9,-99.9,0,0,100,29.91,29.85,12,3,0,0.00
2014-6-23,-200.0,0.0,200.0,-99.9,-99.9,-99.9,0,0,100,29.97,29.88,14,2,0,0.00
2014-6-24,-200.0,0.0,200.0,-99.9,-99.9,-99.9,0,0,100,29.99,29.94,20,3,0,0.00
2014-6-25,-200.0,0.0,200.0,-99.9,-99.9,-99.9,0,0,100,29.98,29.92,14,2,0,0.00
2014-6-26,-200.0,0.0,200.0,-99.9,-99.9,-99.9,0,0,100,29.98,29.94,11,2,0,0.00
2014-6-27,-200.0,0.0,200.0,-99.9,-99.9,-99.9,0,0,100,29.99,29.92,7,1,0,0.00
2014-6-28,-200.0,0.0,200.0,-99.9,-99.9,-99.9,0,0,100,29.94,29.90,12,3,0,0.00
2014-6-29,-200.0,0.0,200.0,-99.9,-99.9,-99.9,0,0,100,29.93,29.81,11,2,0,0.00
2014-6-30,-200.0,0.0,200.0,-99.9,-99.9,-99.9,0,0,100,29.83,29.76,9,2,0,0.00
2014-7-1,-200.0,0.0,200.0,-99.9,-99.9,-99.9,0,0,100,29.86,29.77,6,1,0,0.00
2014-7-2,-200.0,0.0,200.0,-99.9,-99.9,-99.9,0,0,100,29.86,29.80,10,2,0,0.00
2014-7-3,-200.0,0.0,200.0,-99.9,-99.9,-99.9,0,0,100,29.89,29.83,7,1,0,0.00
2014-7-4,-200.0,0.0,200.0,-99.9,-99.9,-99.9,0,0,100,29.97,29.85,9,2,0,0.00
2014-7-5,-200.0,0.0,200.0,-99.9,-99.9,-99.9,0,0,100,30.08,29.95,7,2,0,0.00
2014-7-6,-200.0,0.0,200.0,-99.9,-99.9,-99.9,0,0,100,30.04,29.89,7,2,0,0.00
2014-7-7,-200.0,0.0,200.0,-99.9,-99.9,-99.9,0,0,100,29.91,29.82,6,1,0,0.00
2014-7-8,-200.0,0.0,200.0,-99.9,-99.9,-99.9,0,0,100,29.92,29.82,10,2,0,0.00
2014-7-9,-200.0,0.0,200.0,-99.9,-99.9,-99.9,0,0,100,29.94,29.87,14,2,0,0.00
2014-7-10,-200.0,0.0,200.0,-99.9,0.0,200.0,0,0,100,29.92,29.87,15,3,0,0.00
2014-7-11,-200.0,0.0,200.0,-99.9,0.0,200.0,0,0,100,30.06,29.91,19,4,0,0.00
2014-7-12,-200.0,0.0,200.0,-99.9,0.0,200.0,0,0,100,30.10,29.99,13,2,0,0.00
2014-7-13,-200.0,0.0,200.0,-99.9,0.0,200.0,0,0,100,30.00,29.86,12,2,0,0.00
2014-7-14,-200.0,0.0,200.0,-99.9,0.0,200.0,0,0,100,29.90,29.83,7,1,0,0.00
2014-7-15,-200.0,0.0,200.0,-99.9,0.0,200.0,0,0,100,29.98,29.88,14,2,0,0.00
2014-7-16,-200.0,0.0,200.0,-99.9,0.0,200.0,0,0,100,30.03,29.95,10,1,0,0.00
2014-7-17,-200.0,0.0,200.0,-99.9,0.0,200.0,0,0,100,30.01,29.95,9,1,0,0.00
2014-7-18,-200.0,0.0,200.0,-99.9,0.0,200.0,0,0,100,30.01,29.94,7,1,0,0.00
2014-7-19,-200.0,0.0,200.0,-99.9,0.0,200.0,0,0,100,29.97,29.92,6,1,0,0.00
2014-7-20,-200.0,0.0,200.0,-99.9,0.0,200.0,0,0,100,29.99,29.90,10,2,0,0.00
2014-7-21,-200.0,0.0,200.0,-99.9,0.0,200.0,0,0,100,30.05,29.95,14,2,0,0.00
2014-7-22,-200.0,0.0,200.0,-99.9,0.0,200.0,0,0,100,30.09,30.01,11,2,0,0.01
2014-7-23,-200.0,0.0,200.0,-99.9,0.0,200.0,0,0,100,30.14,30.04,18,3,0,0.00
2014-7-24,-200.0,0.0,200.0,-99.9,0.0,200.0,0,0,100,30.05,29.82,7,2,0,0.00
2014-7-25,-200.0,0.0,200.0,-99.9,0.0,200.0,0,0,100,29.88,29.80,10,3,0,0.00
2014-7-26,-200.0,0.0,200.0,-99.9,0.0,200.0,0,0,100,29.94,29.83,9,2,0,0.00
2014-7-27,-200.0,0.0,200.0,-99.9,0.0,200.0,0,0,100,29.99,29.90,6,1,0,0.00
2014-7-28,-200.0,0.0,200.0,-99.9,0.0,200.0,0,0,100,30.05,29.97,5,1,0,0.00
2014-7-29,-200.0,0.0,200.0,-99.9,0.0,200.0,0,0,100,30.06,29.96,7,1,0,0.00
2014-7-30,-200.0,0.0,200.0,-99.9,0.0,200.0,0,0,100,30.00,29.93,7,1,0,0.00
2014-7-31,-200.0,0.0,200.0,-99.9,0.0,200.0,0,0,100,29.98,29.86,8,1,0,0.00
2014-8-1,-200.0,0.0,200.0,-99.9,0.0,200.0,0,0,100,29.92,29.86,9,2,0,0.00
2014-8-2,-200.0,0.0,200.0,-99.9,0.0,200.0,0,0,100,29.95,29.86,6,1,0,0.00
2014-8-3,-200.0,0.0,200.0,-99.9,0.0,200.0,0,0,100,29.96,29.88,5,1,0,0.00
2014-8-4,-200.0,0.0,200.0,-99.9,0.0,200.0,0,0,100,30.00,29.91,7,1,0,0.00
2014-8-5,-200.0,0.0,200.0,-99.9,0.0,200.0,0,0,100,30.06,29.97,5,1,0,0.00
2014-8-6,-200.0,0.0,200.0,-99.9,0.0,200.0,0,0,100,30.02,29.91,7,1,0,0.00
2014-8-7,-200.0,0.0,200.0,-99.9,0.0,200.0,0,0,100,29.96,29.85,11,1,0,0.00
2014-8-8,-200.0,0.0,200.0,-99.9,0.0,200.0,0,0,100,29.91,29.84,11,2,0,0.00
2014-8-9,-200.0,0.0,200.0,-99.9,0.0,200.0,0,0,100,29.93,29.85,13,2,0,0.00
2014-8-10,-200.0,0.0,200.0,-99.9,0.0,200.0,0,0,100,29.97,29.89,21,3,0,0.00
2014-8-11,-200.0,0.0,200.0,-99.9,0.0,200.0,0,0,100,29.96,29.89,14,3,0,0.00
2014-8-12,-200.0,0.0,200.0,-99.9,0.0,200.0,0,0,100,29.99,29.90,9,2,0,0.00
2014-8-13,-200.0,0.0,200.0,-99.9,0.0,200.0,0,0,100,30.00,29.90,9,2,0,0.00
2014-8-14,-200.0,0.0,200.0,-99.9,0.0,200.0,0,0,100,29.96,29.89,10,2,0,0.00
2014-8-15,-200.0,0.0,200.0,-99.9,0.0,200.0,0,0,100,30.01,29.91,6,1,0,0.00
2014-8-16,-200.0,0.0,200.0,-99.9,0.0,200.0,0,0,100,30.05,29.97,8,2,0,0.00
2014-8-17,-200.0,0.0,200.0,-99.9,0.0,200.0,0,0,100,30.03,29.88,10,2,0,0.00
2014-8-18,-200.0,0.0,200.0,-99.9,0.0,200.0,0,0,100,29.88,29.76,14,2,0,0.00
2014-8-19,-200.0,0.0,200.0,-99.9,0.0,200.0,0,0,100,29.85,29.79,7,2,0,0.00
2014-8-20,-200.0,0.0,200.0,-99.9,0.0,200.0,0,0,100,29.93,29.84,5,1,0,0.00
2014-8-21,-200.0,0.0,200.0,-99.9,0.0,200.0,0,0,100,29.97,29.89,7,1,0,0.00
2014-8-22,-200.0,0.0,200.0,-99.9,0.0,200.0,0,0,100,29.93,29.82,12,2,0,0.00
2014-8-23,-200.0,0.0,200.0,-99.9,0.0,200.0,0,0,100,29.95,29.86,9,2,0,0.00
2014-8-24,-200.0,0.0,200.0,-99.9,0.0,200.0,0,0,100,29.91,29.82,10,2,0,0.00
2014-8-25,-200.0,0.0,200.0,-99.9,0.0,200.0,0,0,100,29.93,29.82,14,3,0,0.00
2014-8-26,-200.0,0.0,200.0,-99.9,0.0,200.0,0,0,100,30.02,29.93,9,2,0,0.00
2014-8-27,-200.0,0.0,200.0,-99.9,0.0,200.0,0,0,100,30.07,29.97,8,2,0,0.00
2014-8-28,-200.0,0.0,200.0,-99.9,0.0,200.0,0,0,100,30.06,29.93,9,1,0,0.00
2014-8-29,-200.0,0.0,200.0,-99.9,0.0,200.0,0,0,100,29.95,29.84,14,2,0,0.00
2014-8-30,-200.0,0.0,200.0,-99.9,0.0,200.0,0,0,100,29.92,29.85,13,3,0,0.00
2014-8-31,-200.0,0.0,200.0,-99.9,0.0,200.0,0,0,100,29.91,29.81,12,2,0,0.00
2014-9-1,-200.0,0.0,200.0,-99.9,0.0,200.0,0,0,100,29.84,29.72,10,2,0,0.00
2014-9-2,-200.0,0.0,200.0,-99.9,0.0,200.0,0,0,100,29.83,29.74,6,1,0,0.00
2014-9-3,-200.0,0.0,200.0,-99.9,0.0,200.0,0,0,100,29.80,29.70,6,1,0,0.00
2014-9-4,-200.0,0.0,200.0,-99.9,0.0,200.0,0,0,100,29.77,29.68,14,3,0,0.00
2014-9-5,-200.0,0.0,200.0,-99.9,0.0,200.0,0,0,100,29.90,29.82,12,3,0,0.00
2014-9-6,-200.0,0.0,200.0,-99.9,0.0,200.0,0,0,100,29.95,29.88,7,2,0,0.00
2014-9-7,-200.0,0.0,200.0,-99.9,0.0,200.0,0,0,100,29.89,29.79,12,3,0,0.00
2014-9-8,-200.0,0.0,200.0,-99.9,0.0,200.0,0,0,100,29.91,29.82,12,3,0,0.00
2014-9-9,-200.0,0.0,200.0,-99.9,0.0,200.0,0,0,100,30.00,29.86,12,2,0,0.00
2014-9-10,-200.0,0.0,200.0,-99.9,0.0,200.0,0,0,100,29.94,29.84,11,4,0,0.00
2014-9-11,-200.0,0.0,200.0,-99.9,0.0,200.0,0,0,100,29.91,29.83,12,2,0,0.00
2014-9-12,-200.0,0.0,200.0,-99.9,0.0,200.0,0,0,100,29.90,29.79,11,2,0,0.00
2014-9-13,-200.0,0.0,200.0,-99.9,0.0,200.0,0,0,100,29.85,29.77,6,1,0,0.00
2014-9-14,-200.0,0.0,200.0,-99.9,0.0,200.0,0,0,100,29.87,29.80,9,1,0,0.00
2014-9-15,-200.0,0.0,200.0,-99.9,0.0,200.0,0,0,100,29.92,29.82,8,2,0,0.00
2014-9-16,-200.0,0.0,200.0,-99.9,0.0,200.0,0,0,100,29.92,29.77,14,5,0,0.00
2014-9-17,-200.0,0.0,200.0,-99.9,0.0,200.0,0,0,100,29.80,29.70,16,4,0,0.00
2014-9-18,-200.0,0.0,200.0,-99.9,0.0,200.0,0,0,100,29.87,29.71,13,4,0,0.35
2014-9-19,-200.0,0.0,200.0,-99.9,0.0,200.0,0,0,100,29.90,29.84,9,3,0,0.00
2014-9-20,-200.0,0.0,200.0,-99.9,0.0,200.0,0,0,100,29.94,29.85,12,2,0,0.00
2014-9-21,-200.0,0.0,200.0,-99.9,0.0,200.0,0,0,100,30.00,29.91,9,2,0,0.00
2014-9-22,-200.0,0.0,200.0,-99.9,0.0,200.0,0,0,100,30.02,29.95,12,2,0,0.00
2014-9-23,-200.0,0.0,200.0,-99.9,0.0,200.0,0,0,100,29.99,29.92,11,4,0,0.00
2014-9-24,-200.0,0.0,200.0,-99.9,0.0,200.0,0,0,100,29.93,29.87,9,2,0,0.25
2014-9-25,-200.0,0.0,200.0,-99.9,0.0,200.0,0,0,100,29.99,29.87,10,3,0,0.01
2014-9-26,-200.0,0.0,200.0,-99.9,0.0,200.0,0,0,100,30.00,29.89,18,5,0,0.01
2014-9-27,-200.0,0.0,200.0,-99.9,0.0,200.0,0,0,100,29.91,29.79,17,3,0,0.00
2014-9-28,-200.0,0.0,200.0,-99.9,0.0,200.0,0,0,100,29.95,29.79,10,3,0,0.00
2014-9-29,-200.0,0.0,200.0,-99.9,0.0,200.0,0,0,100,30.00,29.93,17,2,0,0.00
2014-9-30,-200.0,0.0,200.0,-99.9,0.0,200.0,0,0,100,29.97,29.83,11,3,0,0.00
2014-10-1,-200.0,0.0,200.0,-99.9,0.0,200.0,0,0,100,29.92,29.85,16,6,0,0.00
2014-10-2,-200.0,0.0,200.0,-99.9,0.0,200.0,0,0,100,30.02,29.91,16,8,0,0.00
2014-10-3,-200.0,0.0,200.0,-99.9,0.0,200.0,0,0,100,30.07,29.99,18,9,0,0.00
2014-10-4,-200.0,0.0,200.0,-99.9,0.0,200.0,0,0,100,30.03,29.92,17,7,0,0.00
2014-10-5,-200.0,0.0,200.0,-99.9,0.0,200.0,0,0,100,29.97,29.89,13,3,0,0.00
2014-10-6,-200.0,0.0,200.0,-99.9,0.0,200.0,0,0,100,29.93,29.86,6,1,0,0.00
2014-10-7,-200.0,0.0,200.0,-99.9,0.0,200.0,0,0,100,29.93,29.83,10,3,0,0.00
2014-10-8,-200.0,0.0,200.0,-99.9,0.0,200.0,0,0,100,29.92,29.85,12,5,0,0.00
2014-10-9,-200.0,0.0,200.0,-99.9,0.0,200.0,0,0,100,29.96,29.89,8,3,0,0.00
2014-10-10,-200.0,0.0,200.0,-99.9,0.0,200.0,0,0,100,30.05,29.95,6,2,0,0.00
2014-10-11,-200.0,0.0,200.0,-99.9,0.0,200.0,0,0,100,30.04,29.95,12,3,0,0.00
2014-10-12,-200.0,0.0,200.0,-99.9,0.0,200.0,0,0,100,29.99,29.87,12,3,0,0.00
2014-10-13,-200.0,0.0,200.0,-99.9,0.0,200.0,0,0,100,29.95,29.87,16,6,0,0.00
2014-10-14,-200.0,0.0,200.0,-99.9,0.0,200.0,0,0,100,29.93,29.78,11,3,0,0.00
2014-10-15,-200.0,0.0,200.0,-99.9,0.0,200.0,0,0,100,30.02,29.82,9,3,0,0.09
2014-10-16,-200.0,0.0,200.0,-99.9,0.0,200.0,0,0,100,30.02,29.90,11,5,0,0.00
2014-10-17,-200.0,0.0,200.0,-99.9,0.0,200.0,0,0,100,29.95,29.88,11,4,0,0.18
2014-10-18,-200.0,0.0,200.0,-99.9,0.0,200.0,0,0,100,29.97,29.88,7,3,0,0.05
2014-10-19,-200.0,0.0,200.0,-99.9,0.0,200.0,0,0,100,29.91,29.84,9,3,0,0.00
2014-10-20,-200.0,0.0,200.0,-99.9,0.0,200.0,0,0,100,29.98,29.84,9,3,0,0.26